sensor_id;sensor_type;location;lat;lon;timestamp;temperature;humidity
22321;DHT22;11328;53.928;18.522;2022-07-06T00:00:06;15.50;99.90
22321;DHT22;11328;53.928;18.522;2022-07-06T00:02:34;15.40;99.90
22321;DHT22;11328;53.928;18.522;2022-07-06T00:05:01;15.30;99.90
22321;DHT22;11328;53.928;18.522;2022-07-06T00:07:28;15.30;99.90
22321;DHT22;11328;53.928;18.522;2022-07-06T00:09:54;15.20;99.90
22321;DHT22;11328;53.928;18.522;2022-07-06T00:12:21;15.20;99.90
22321;DHT22;11328;53.928;18.522;2022-07-06T00:14:48;15.20;99.90
22321;DHT22;11328;53.928;18.522;2022-07-06T00:17:15;15.20;99.90
22321;DHT22;11328;53.928;18.522;2022-07-06T00:19:43;15.10;99.90
22321;DHT22;11328;53.928;18.522;2022-07-06T00:22:09;15.10;99.90
22321;DHT22;11328;53.928;18.522;2022-07-06T00:24:36;15.10;99.90
22321;DHT22;11328;53.928;18.522;2022-07-06T00:27:04;15.00;99.90
22321;DHT22;11328;53.928;18.522;2022-07-06T00:29:30;15.00;99.90
22321;DHT22;11328;53.928;18.522;2022-07-06T00:31:58;15.00;99.90
22321;DHT22;11328;53.928;18.522;2022-07-06T00:34:25;15.00;99.90
22321;DHT22;11328;53.928;18.522;2022-07-06T00:36:54;15.00;99.90
22321;DHT22;11328;53.928;18.522;2022-07-06T00:39:21;15.00;99.90
22321;DHT22;11328;53.928;18.522;2022-07-06T00:41:49;14.90;99.90
22321;DHT22;11328;53.928;18.522;2022-07-06T00:44:16;14.90;99.90
22321;DHT22;11328;53.928;18.522;2022-07-06T00:46:43;14.90;99.90
22321;DHT22;11328;53.928;18.522;2022-07-06T00:49:10;14.90;99.90
22321;DHT22;11328;53.928;18.522;2022-07-06T00:51:57;14.90;99.90
22321;DHT22;11328;53.928;18.522;2022-07-06T00:54:26;14.90;99.90
22321;DHT22;11328;53.928;18.522;2022-07-06T00:56:54;14.90;99.90
22321;DHT22;11328;53.928;18.522;2022-07-06T00:59:23;14.90;99.90
22321;DHT22;11328;53.928;18.522;2022-07-06T01:01:50;14.90;99.90
22321;DHT22;11328;53.928;18.522;2022-07-06T01:04:17;14.80;99.90
22321;DHT22;11328;53.928;18.522;2022-07-06T01:06:48;14.80;99.90
22321;DHT22;11328;53.928;18.522;2022-07-06T01:09:15;14.90;99.90
22321;DHT22;11328;53.928;18.522;2022-07-06T01:11:43;14.90;99.90
22321;DHT22;11328;53.928;18.522;2022-07-06T01:14:12;14.90;99.90
22321;DHT22;11328;53.928;18.522;2022-07-06T01:16:40;14.90;99.90
22321;DHT22;11328;53.928;18.522;2022-07-06T01:19:07;14.90;99.90
22321;DHT22;11328;53.928;18.522;2022-07-06T01:21:38;14.90;99.90
22321;DHT22;11328;53.928;18.522;2022-07-06T01:24:05;14.90;99.90
22321;DHT22;11328;53.928;18.522;2022-07-06T01:26:32;14.90;99.90
22321;DHT22;11328;53.928;18.522;2022-07-06T01:28:59;14.90;99.90
22321;DHT22;11328;53.928;18.522;2022-07-06T01:31:27;14.90;99.90
22321;DHT22;11328;53.928;18.522;2022-07-06T01:33:55;14.90;99.90
22321;DHT22;11328;53.928;18.522;2022-07-06T01:36:23;15.00;99.90
22321;DHT22;11328;53.928;18.522;2022-07-06T01:38:52;15.00;99.90
22321;DHT22;11328;53.928;18.522;2022-07-06T01:41:21;15.00;99.90
22321;DHT22;11328;53.928;18.522;2022-07-06T01:43:48;15.00;99.90
22321;DHT22;11328;53.928;18.522;2022-07-06T01:46:15;14.90;99.90
22321;DHT22;11328;53.928;18.522;2022-07-06T01:48:43;14.90;99.90
22321;DHT22;11328;53.928;18.522;2022-07-06T01:51:10;14.90;99.90
22321;DHT22;11328;53.928;18.522;2022-07-06T01:53:38;14.90;99.90
22321;DHT22;11328;53.928;18.522;2022-07-06T01:56:05;15.00;99.90
22321;DHT22;11328;53.928;18.522;2022-07-06T01:58:33;14.90;99.90
22321;DHT22;11328;53.928;18.522;2022-07-06T02:01:00;15.00;99.90
22321;DHT22;11328;53.928;18.522;2022-07-06T02:03:27;15.00;99.90
22321;DHT22;11328;53.928;18.522;2022-07-06T02:05:54;15.00;99.90
22321;DHT22;11328;53.928;18.522;2022-07-06T02:08:21;15.00;99.90
22321;DHT22;11328;53.928;18.522;2022-07-06T02:10:49;15.00;99.90
22321;DHT22;11328;53.928;18.522;2022-07-06T02:13:16;15.00;99.90
22321;DHT22;11328;53.928;18.522;2022-07-06T02:15:43;15.00;99.90
22321;DHT22;11328;53.928;18.522;2022-07-06T02:18:10;14.90;99.90
22321;DHT22;11328;53.928;18.522;2022-07-06T02:20:37;14.90;99.90
22321;DHT22;11328;53.928;18.522;2022-07-06T02:23:04;14.90;99.90
22321;DHT22;11328;53.928;18.522;2022-07-06T02:25:31;14.90;99.90
22321;DHT22;11328;53.928;18.522;2022-07-06T02:27:58;14.80;99.90
22321;DHT22;11328;53.928;18.522;2022-07-06T02:30:25;14.80;99.90
22321;DHT22;11328;53.928;18.522;2022-07-06T02:32:51;14.80;99.90
22321;DHT22;11328;53.928;18.522;2022-07-06T02:35:18;14.80;99.90
22321;DHT22;11328;53.928;18.522;2022-07-06T02:37:45;14.80;99.90
22321;DHT22;11328;53.928;18.522;2022-07-06T02:40:12;14.70;99.90
22321;DHT22;11328;53.928;18.522;2022-07-06T02:42:39;14.80;99.90
22321;DHT22;11328;53.928;18.522;2022-07-06T02:45:07;14.80;99.90
22321;DHT22;11328;53.928;18.522;2022-07-06T02:47:35;14.80;99.90
22321;DHT22;11328;53.928;18.522;2022-07-06T02:50:02;15.00;99.90
22321;DHT22;11328;53.928;18.522;2022-07-06T02:52:30;15.00;99.90
22321;DHT22;11328;53.928;18.522;2022-07-06T02:55:04;15.00;99.90
22321;DHT22;11328;53.928;18.522;2022-07-06T02:57:31;14.90;99.90
22321;DHT22;11328;53.928;18.522;2022-07-06T02:59:58;14.90;99.90
22321;DHT22;11328;53.928;18.522;2022-07-06T03:02:25;15.00;99.90
22321;DHT22;11328;53.928;18.522;2022-07-06T03:04:52;14.90;99.90
22321;DHT22;11328;53.928;18.522;2022-07-06T03:07:19;14.90;99.90
22321;DHT22;11328;53.928;18.522;2022-07-06T03:09:46;14.80;99.90
22321;DHT22;11328;53.928;18.522;2022-07-06T03:12:12;14.70;99.90
22321;DHT22;11328;53.928;18.522;2022-07-06T03:14:40;14.70;99.90
22321;DHT22;11328;53.928;18.522;2022-07-06T03:17:06;14.70;99.90
22321;DHT22;11328;53.928;18.522;2022-07-06T03:19:33;14.70;99.90
22321;DHT22;11328;53.928;18.522;2022-07-06T03:22:01;14.60;99.90
22321;DHT22;11328;53.928;18.522;2022-07-06T03:24:28;14.60;99.90
22321;DHT22;11328;53.928;18.522;2022-07-06T03:26:55;14.60;99.90
22321;DHT22;11328;53.928;18.522;2022-07-06T03:29:22;14.80;99.90
22321;DHT22;11328;53.928;18.522;2022-07-06T03:31:49;14.90;99.90
22321;DHT22;11328;53.928;18.522;2022-07-06T03:34:16;14.90;99.90
22321;DHT22;11328;53.928;18.522;2022-07-06T03:36:43;14.90;99.90
22321;DHT22;11328;53.928;18.522;2022-07-06T03:39:10;14.90;99.90
22321;DHT22;11328;53.928;18.522;2022-07-06T03:41:37;14.90;99.90
22321;DHT22;11328;53.928;18.522;2022-07-06T03:44:04;14.90;99.90
22321;DHT22;11328;53.928;18.522;2022-07-06T03:46:31;14.90;99.90
22321;DHT22;11328;53.928;18.522;2022-07-06T03:48:58;15.00;99.90
22321;DHT22;11328;53.928;18.522;2022-07-06T03:51:25;15.00;99.90
22321;DHT22;11328;53.928;18.522;2022-07-06T03:53:52;15.10;99.90
22321;DHT22;11328;53.928;18.522;2022-07-06T03:56:19;15.10;99.90
22321;DHT22;11328;53.928;18.522;2022-07-06T03:58:56;15.10;99.90
22321;DHT22;11328;53.928;18.522;2022-07-06T04:01:24;15.10;99.90
22321;DHT22;11328;53.928;18.522;2022-07-06T04:03:51;15.30;99.90
22321;DHT22;11328;53.928;18.522;2022-07-06T04:06:19;15.20;99.90
22321;DHT22;11328;53.928;18.522;2022-07-06T04:08:46;15.20;99.90
22321;DHT22;11328;53.928;18.522;2022-07-06T04:11:13;15.30;99.90
22321;DHT22;11328;53.928;18.522;2022-07-06T04:13:40;15.30;99.90
22321;DHT22;11328;53.928;18.522;2022-07-06T04:16:08;15.40;99.90
22321;DHT22;11328;53.928;18.522;2022-07-06T04:18:35;15.50;99.90
22321;DHT22;11328;53.928;18.522;2022-07-06T04:21:02;15.60;99.90
22321;DHT22;11328;53.928;18.522;2022-07-06T04:23:30;15.60;99.90
22321;DHT22;11328;53.928;18.522;2022-07-06T04:25:57;15.70;99.90
22321;DHT22;11328;53.928;18.522;2022-07-06T04:28:24;15.60;99.90
22321;DHT22;11328;53.928;18.522;2022-07-06T04:30:51;15.70;99.90
22321;DHT22;11328;53.928;18.522;2022-07-06T04:33:18;15.60;99.90
22321;DHT22;11328;53.928;18.522;2022-07-06T04:35:45;15.70;99.90
22321;DHT22;11328;53.928;18.522;2022-07-06T04:38:12;15.60;99.90
22321;DHT22;11328;53.928;18.522;2022-07-06T04:40:39;15.60;99.90
22321;DHT22;11328;53.928;18.522;2022-07-06T04:43:06;15.70;99.90
22321;DHT22;11328;53.928;18.522;2022-07-06T04:45:33;15.70;99.90
22321;DHT22;11328;53.928;18.522;2022-07-06T04:48:00;15.80;99.90
22321;DHT22;11328;53.928;18.522;2022-07-06T04:50:27;15.70;99.90
22321;DHT22;11328;53.928;18.522;2022-07-06T04:52:54;15.70;99.90
22321;DHT22;11328;53.928;18.522;2022-07-06T04:55:21;15.70;99.90
22321;DHT22;11328;53.928;18.522;2022-07-06T04:57:48;15.70;99.90
22321;DHT22;11328;53.928;18.522;2022-07-06T05:00:15;15.70;99.90
22321;DHT22;11328;53.928;18.522;2022-07-06T05:02:42;15.60;99.90
22321;DHT22;11328;53.928;18.522;2022-07-06T05:05:09;15.60;99.90
22321;DHT22;11328;53.928;18.522;2022-07-06T05:07:39;15.70;99.90
22321;DHT22;11328;53.928;18.522;2022-07-06T05:10:08;15.70;99.90
22321;DHT22;11328;53.928;18.522;2022-07-06T05:12:36;15.70;99.90
22321;DHT22;11328;53.928;18.522;2022-07-06T05:15:04;15.90;99.90
22321;DHT22;11328;53.928;18.522;2022-07-06T05:17:32;16.10;99.90
22321;DHT22;11328;53.928;18.522;2022-07-06T05:19:59;16.40;99.90
22321;DHT22;11328;53.928;18.522;2022-07-06T05:22:26;16.50;99.90
22321;DHT22;11328;53.928;18.522;2022-07-06T05:24:53;16.70;99.90
22321;DHT22;11328;53.928;18.522;2022-07-06T05:27:20;17.00;99.90
22321;DHT22;11328;53.928;18.522;2022-07-06T05:29:47;17.20;99.90
22321;DHT22;11328;53.928;18.522;2022-07-06T05:32:14;17.30;99.90
22321;DHT22;11328;53.928;18.522;2022-07-06T05:34:41;17.50;99.90
22321;DHT22;11328;53.928;18.522;2022-07-06T05:37:08;17.30;99.90
22321;DHT22;11328;53.928;18.522;2022-07-06T05:39:35;17.40;99.90
22321;DHT22;11328;53.928;18.522;2022-07-06T05:42:08;17.50;99.90
22321;DHT22;11328;53.928;18.522;2022-07-06T05:44:35;17.60;99.90
22321;DHT22;11328;53.928;18.522;2022-07-06T05:47:02;17.70;99.90
22321;DHT22;11328;53.928;18.522;2022-07-06T05:49:47;17.80;99.90
22321;DHT22;11328;53.928;18.522;2022-07-06T05:52:33;18.00;99.90
22321;DHT22;11328;53.928;18.522;2022-07-06T05:55:00;18.40;99.90
22321;DHT22;11328;53.928;18.522;2022-07-06T05:57:27;18.60;99.90
22321;DHT22;11328;53.928;18.522;2022-07-06T05:59:54;18.80;99.90
22321;DHT22;11328;53.928;18.522;2022-07-06T06:02:21;18.70;99.90
22321;DHT22;11328;53.928;18.522;2022-07-06T06:04:48;18.80;99.90
22321;DHT22;11328;53.928;18.522;2022-07-06T06:07:15;19.20;99.90
22321;DHT22;11328;53.928;18.522;2022-07-06T06:09:43;19.40;99.90
22321;DHT22;11328;53.928;18.522;2022-07-06T06:12:10;19.60;99.90
22321;DHT22;11328;53.928;18.522;2022-07-06T06:14:37;19.90;99.90
22321;DHT22;11328;53.928;18.522;2022-07-06T06:17:04;19.90;99.90
22321;DHT22;11328;53.928;18.522;2022-07-06T06:19:35;20.00;99.90
22321;DHT22;11328;53.928;18.522;2022-07-06T06:22:03;19.70;99.90
22321;DHT22;11328;53.928;18.522;2022-07-06T06:24:30;19.70;99.90
22321;DHT22;11328;53.928;18.522;2022-07-06T06:26:57;19.80;99.90
22321;DHT22;11328;53.928;18.522;2022-07-06T06:29:26;19.90;99.90
22321;DHT22;11328;53.928;18.522;2022-07-06T06:31:53;19.90;99.90
22321;DHT22;11328;53.928;18.522;2022-07-06T06:34:20;20.20;99.90
22321;DHT22;11328;53.928;18.522;2022-07-06T06:36:47;20.00;99.90
22321;DHT22;11328;53.928;18.522;2022-07-06T06:39:17;20.10;99.90
22321;DHT22;11328;53.928;18.522;2022-07-06T06:41:44;20.20;99.90
22321;DHT22;11328;53.928;18.522;2022-07-06T06:44:11;20.40;99.90
22321;DHT22;11328;53.928;18.522;2022-07-06T06:46:38;20.40;99.90
22321;DHT22;11328;53.928;18.522;2022-07-06T06:49:07;20.60;99.90
22321;DHT22;11328;53.928;18.522;2022-07-06T06:51:34;20.80;99.90
22321;DHT22;11328;53.928;18.522;2022-07-06T06:54:02;21.10;99.90
22321;DHT22;11328;53.928;18.522;2022-07-06T06:56:29;21.10;99.90
22321;DHT22;11328;53.928;18.522;2022-07-06T06:58:56;21.20;99.90
22321;DHT22;11328;53.928;18.522;2022-07-06T07:01:42;21.30;99.90
22321;DHT22;11328;53.928;18.522;2022-07-06T07:04:09;21.40;99.90
22321;DHT22;11328;53.928;18.522;2022-07-06T07:06:36;21.30;99.90
22321;DHT22;11328;53.928;18.522;2022-07-06T07:09:03;21.30;99.90
22321;DHT22;11328;53.928;18.522;2022-07-06T07:11:31;21.20;99.90
22321;DHT22;11328;53.928;18.522;2022-07-06T07:13:58;21.40;99.90
22321;DHT22;11328;53.928;18.522;2022-07-06T07:16:27;21.70;99.90
22321;DHT22;11328;53.928;18.522;2022-07-06T07:18:54;21.50;99.90
22321;DHT22;11328;53.928;18.522;2022-07-06T07:21:21;21.80;99.90
22321;DHT22;11328;53.928;18.522;2022-07-06T07:23:48;22.00;99.90
22321;DHT22;11328;53.928;18.522;2022-07-06T07:26:17;22.00;99.90
22321;DHT22;11328;53.928;18.522;2022-07-06T07:28:44;22.10;99.90
22321;DHT22;11328;53.928;18.522;2022-07-06T07:31:11;22.00;99.90
22321;DHT22;11328;53.928;18.522;2022-07-06T07:33:38;21.90;99.90
22321;DHT22;11328;53.928;18.522;2022-07-06T07:36:05;22.10;99.90
22321;DHT22;11328;53.928;18.522;2022-07-06T07:38:32;22.10;99.90
22321;DHT22;11328;53.928;18.522;2022-07-06T07:40:59;22.10;99.90
22321;DHT22;11328;53.928;18.522;2022-07-06T07:43:26;22.00;99.90
22321;DHT22;11328;53.928;18.522;2022-07-06T07:45:53;22.10;99.90
22321;DHT22;11328;53.928;18.522;2022-07-06T07:48:21;22.40;99.90
22321;DHT22;11328;53.928;18.522;2022-07-06T07:50:48;22.60;99.90
22321;DHT22;11328;53.928;18.522;2022-07-06T07:53:15;22.80;99.90
22321;DHT22;11328;53.928;18.522;2022-07-06T07:55:42;22.70;99.90
22321;DHT22;11328;53.928;18.522;2022-07-06T07:58:09;22.80;99.90
22321;DHT22;11328;53.928;18.522;2022-07-06T08:00:36;22.60;99.90
22321;DHT22;11328;53.928;18.522;2022-07-06T08:03:03;22.50;99.90
22321;DHT22;11328;53.928;18.522;2022-07-06T08:05:30;22.40;99.90
22321;DHT22;11328;53.928;18.522;2022-07-06T08:07:57;22.70;99.90
22321;DHT22;11328;53.928;18.522;2022-07-06T08:10:24;22.40;99.90
22321;DHT22;11328;53.928;18.522;2022-07-06T08:12:51;22.10;99.90
22321;DHT22;11328;53.928;18.522;2022-07-06T08:15:19;22.40;99.90
22321;DHT22;11328;53.928;18.522;2022-07-06T08:17:46;22.50;99.90
22321;DHT22;11328;53.928;18.522;2022-07-06T08:20:13;22.40;99.90
22321;DHT22;11328;53.928;18.522;2022-07-06T08:22:42;22.20;99.90
22321;DHT22;11328;53.928;18.522;2022-07-06T08:25:10;22.30;99.90
22321;DHT22;11328;53.928;18.522;2022-07-06T08:27:37;22.40;99.90
22321;DHT22;11328;53.928;18.522;2022-07-06T08:30:04;22.60;99.90
22321;DHT22;11328;53.928;18.522;2022-07-06T08:32:32;22.60;99.90
22321;DHT22;11328;53.928;18.522;2022-07-06T08:35:19;22.50;99.90
22321;DHT22;11328;53.928;18.522;2022-07-06T08:37:46;22.90;99.90
22321;DHT22;11328;53.928;18.522;2022-07-06T08:40:13;23.00;99.90
22321;DHT22;11328;53.928;18.522;2022-07-06T08:42:40;23.10;99.90
22321;DHT22;11328;53.928;18.522;2022-07-06T08:45:09;23.20;99.90
22321;DHT22;11328;53.928;18.522;2022-07-06T08:47:36;22.80;99.90
22321;DHT22;11328;53.928;18.522;2022-07-06T08:50:05;23.00;99.90
22321;DHT22;11328;53.928;18.522;2022-07-06T08:52:33;23.30;99.90
22321;DHT22;11328;53.928;18.522;2022-07-06T08:55:02;23.60;99.90
22321;DHT22;11328;53.928;18.522;2022-07-06T08:57:30;23.20;98.90
22321;DHT22;11328;53.928;18.522;2022-07-06T08:59:57;22.80;99.90
22321;DHT22;11328;53.928;18.522;2022-07-06T09:02:25;22.30;99.50
22321;DHT22;11328;53.928;18.522;2022-07-06T09:04:56;22.50;99.90
22321;DHT22;11328;53.928;18.522;2022-07-06T09:07:27;22.50;99.90
22321;DHT22;11328;53.928;18.522;2022-07-06T09:10:18;22.50;99.90
22321;DHT22;11328;53.928;18.522;2022-07-06T09:12:46;22.20;99.90
22321;DHT22;11328;53.928;18.522;2022-07-06T09:15:14;22.00;99.30
22321;DHT22;11328;53.928;18.522;2022-07-06T09:17:43;22.00;99.90
22321;DHT22;11328;53.928;18.522;2022-07-06T09:20:13;22.20;99.00
22321;DHT22;11328;53.928;18.522;2022-07-06T09:22:41;22.50;99.90
22321;DHT22;11328;53.928;18.522;2022-07-06T09:25:09;22.50;99.10
22321;DHT22;11328;53.928;18.522;2022-07-06T09:27:41;22.90;99.50
22321;DHT22;11328;53.928;18.522;2022-07-06T09:30:10;23.00;98.90
22321;DHT22;11328;53.928;18.522;2022-07-06T09:32:48;23.10;97.60
22321;DHT22;11328;53.928;18.522;2022-07-06T09:35:35;23.40;97.90
22321;DHT22;11328;53.928;18.522;2022-07-06T09:38:06;23.40;97.20
22321;DHT22;11328;53.928;18.522;2022-07-06T09:40:42;23.40;95.40
22321;DHT22;11328;53.928;18.522;2022-07-06T09:43:21;23.40;95.90
22321;DHT22;11328;53.928;18.522;2022-07-06T09:45:54;23.50;97.00
22321;DHT22;11328;53.928;18.522;2022-07-06T09:51:02;23.40;96.80
22321;DHT22;11328;53.928;18.522;2022-07-06T09:53:29;23.50;97.30
22321;DHT22;11328;53.928;18.522;2022-07-06T09:55:57;23.00;96.60
22321;DHT22;11328;53.928;18.522;2022-07-06T09:58:25;23.00;95.60
22321;DHT22;11328;53.928;18.522;2022-07-06T10:01:25;22.90;97.10
22321;DHT22;11328;53.928;18.522;2022-07-06T10:03:54;22.80;95.20
22321;DHT22;11328;53.928;18.522;2022-07-06T10:06:23;23.00;95.10
22321;DHT22;11328;53.928;18.522;2022-07-06T10:08:57;23.10;94.90
22321;DHT22;11328;53.928;18.522;2022-07-06T10:11:26;23.60;95.30
22321;DHT22;11328;53.928;18.522;2022-07-06T10:13:56;23.80;95.20
22321;DHT22;11328;53.928;18.522;2022-07-06T10:16:24;23.90;94.50
22321;DHT22;11328;53.928;18.522;2022-07-06T10:18:52;23.80;93.20
22321;DHT22;11328;53.928;18.522;2022-07-06T10:21:22;23.50;93.60
22321;DHT22;11328;53.928;18.522;2022-07-06T10:23:50;23.60;94.60
22321;DHT22;11328;53.928;18.522;2022-07-06T10:26:18;23.20;95.10
22321;DHT22;11328;53.928;18.522;2022-07-06T10:28:47;22.90;95.80
22321;DHT22;11328;53.928;18.522;2022-07-06T10:31:16;23.00;96.60
22321;DHT22;11328;53.928;18.522;2022-07-06T10:33:46;23.20;96.20
22321;DHT22;11328;53.928;18.522;2022-07-06T10:36:13;23.30;96.20
22321;DHT22;11328;53.928;18.522;2022-07-06T10:38:48;23.50;96.90
22321;DHT22;11328;53.928;18.522;2022-07-06T10:41:17;23.10;96.90
22321;DHT22;11328;53.928;18.522;2022-07-06T10:43:46;23.30;96.60
22321;DHT22;11328;53.928;18.522;2022-07-06T10:46:16;23.50;96.90
22321;DHT22;11328;53.928;18.522;2022-07-06T10:48:48;23.20;96.40
22321;DHT22;11328;53.928;18.522;2022-07-06T10:51:29;23.40;96.90
22321;DHT22;11328;53.928;18.522;2022-07-06T10:54:04;23.40;96.40
22321;DHT22;11328;53.928;18.522;2022-07-06T10:56:43;23.00;97.00
22321;DHT22;11328;53.928;18.522;2022-07-06T11:02:17;23.80;98.40
22321;DHT22;11328;53.928;18.522;2022-07-06T11:04:47;23.70;97.00
22321;DHT22;11328;53.928;18.522;2022-07-06T11:07:17;24.10;96.50
22321;DHT22;11328;53.928;18.522;2022-07-06T11:09:56;24.20;96.70
22321;DHT22;11328;53.928;18.522;2022-07-06T11:12:25;24.20;96.10
22321;DHT22;11328;53.928;18.522;2022-07-06T11:14:53;24.50;94.90
22321;DHT22;11328;53.928;18.522;2022-07-06T11:17:21;24.10;95.90
22321;DHT22;11328;53.928;18.522;2022-07-06T11:19:50;24.10;95.60
22321;DHT22;11328;53.928;18.522;2022-07-06T11:22:23;24.60;95.00
22321;DHT22;11328;53.928;18.522;2022-07-06T11:24:53;24.90;94.90
22321;DHT22;11328;53.928;18.522;2022-07-06T11:27:23;25.10;94.30
22321;DHT22;11328;53.928;18.522;2022-07-06T11:29:50;24.80;93.70
22321;DHT22;11328;53.928;18.522;2022-07-06T11:32:23;24.70;93.80
22321;DHT22;11328;53.928;18.522;2022-07-06T11:34:52;24.70;92.80
22321;DHT22;11328;53.928;18.522;2022-07-06T11:37:20;24.40;92.90
22321;DHT22;11328;53.928;18.522;2022-07-06T11:39:48;24.40;93.30
22321;DHT22;11328;53.928;18.522;2022-07-06T11:42:18;24.00;93.20
22321;DHT22;11328;53.928;18.522;2022-07-06T11:44:46;24.00;94.60
22321;DHT22;11328;53.928;18.522;2022-07-06T11:47:13;23.70;93.90
22321;DHT22;11328;53.928;18.522;2022-07-06T11:49:50;23.90;94.20
22321;DHT22;11328;53.928;18.522;2022-07-06T11:52:19;23.80;94.40
22321;DHT22;11328;53.928;18.522;2022-07-06T11:54:46;23.60;93.60
22321;DHT22;11328;53.928;18.522;2022-07-06T11:57:13;23.80;94.70
22321;DHT22;11328;53.928;18.522;2022-07-06T11:59:41;23.90;93.50
22321;DHT22;11328;53.928;18.522;2022-07-06T12:02:14;23.40;93.70
22321;DHT22;11328;53.928;18.522;2022-07-06T12:04:44;23.50;93.70
22321;DHT22;11328;53.928;18.522;2022-07-06T12:07:14;23.20;92.50
22321;DHT22;11328;53.928;18.522;2022-07-06T12:09:45;23.20;93.00
22321;DHT22;11328;53.928;18.522;2022-07-06T12:12:13;23.20;93.80
22321;DHT22;11328;53.928;18.522;2022-07-06T12:14:42;22.90;93.30
22321;DHT22;11328;53.928;18.522;2022-07-06T12:17:11;23.00;94.00
22321;DHT22;11328;53.928;18.522;2022-07-06T12:19:41;22.80;93.90
22321;DHT22;11328;53.928;18.522;2022-07-06T12:22:10;22.40;93.60
22321;DHT22;11328;53.928;18.522;2022-07-06T12:24:42;22.90;95.00
22321;DHT22;11328;53.928;18.522;2022-07-06T12:27:17;22.90;93.20
22321;DHT22;11328;53.928;18.522;2022-07-06T12:29:47;23.40;94.10
22321;DHT22;11328;53.928;18.522;2022-07-06T12:32:22;23.60;93.40
22321;DHT22;11328;53.928;18.522;2022-07-06T12:35:06;23.30;93.00
22321;DHT22;11328;53.928;18.522;2022-07-06T12:37:35;22.80;94.20
22321;DHT22;11328;53.928;18.522;2022-07-06T12:40:11;22.60;94.70
22321;DHT22;11328;53.928;18.522;2022-07-06T12:42:46;22.90;95.20
22321;DHT22;11328;53.928;18.522;2022-07-06T12:45:14;23.20;94.50
22321;DHT22;11328;53.928;18.522;2022-07-06T12:47:46;23.50;94.50
22321;DHT22;11328;53.928;18.522;2022-07-06T12:50:35;23.40;94.50
22321;DHT22;11328;53.928;18.522;2022-07-06T12:53:05;23.30;93.90
22321;DHT22;11328;53.928;18.522;2022-07-06T12:55:38;23.10;93.80
22321;DHT22;11328;53.928;18.522;2022-07-06T12:58:05;23.30;94.10
22321;DHT22;11328;53.928;18.522;2022-07-06T13:00:44;23.40;93.70
22321;DHT22;11328;53.928;18.522;2022-07-06T13:03:13;23.50;92.80
22321;DHT22;11328;53.928;18.522;2022-07-06T13:05:49;23.50;92.90
22321;DHT22;11328;53.928;18.522;2022-07-06T13:08:16;23.70;93.20
22321;DHT22;11328;53.928;18.522;2022-07-06T13:10:43;24.00;92.60
22321;DHT22;11328;53.928;18.522;2022-07-06T13:13:11;23.90;91.70
22321;DHT22;11328;53.928;18.522;2022-07-06T13:15:41;23.90;92.40
22321;DHT22;11328;53.928;18.522;2022-07-06T13:18:09;23.70;91.70
22321;DHT22;11328;53.928;18.522;2022-07-06T13:20:40;23.90;92.10
22321;DHT22;11328;53.928;18.522;2022-07-06T13:23:08;23.70;92.30
22321;DHT22;11328;53.928;18.522;2022-07-06T13:25:35;23.40;91.50
22321;DHT22;11328;53.928;18.522;2022-07-06T13:28:02;22.80;91.70
22321;DHT22;11328;53.928;18.522;2022-07-06T13:30:29;22.50;92.30
22321;DHT22;11328;53.928;18.522;2022-07-06T13:32:57;22.60;92.50
22321;DHT22;11328;53.928;18.522;2022-07-06T13:35:24;22.50;93.20
22321;DHT22;11328;53.928;18.522;2022-07-06T13:37:55;22.30;94.70
22321;DHT22;11328;53.928;18.522;2022-07-06T13:40:22;22.40;95.30
22321;DHT22;11328;53.928;18.522;2022-07-06T13:42:49;22.50;95.10
22321;DHT22;11328;53.928;18.522;2022-07-06T13:45:17;22.30;93.90
22321;DHT22;11328;53.928;18.522;2022-07-06T13:47:44;22.20;92.70
22321;DHT22;11328;53.928;18.522;2022-07-06T13:50:11;21.80;92.20
22321;DHT22;11328;53.928;18.522;2022-07-06T13:52:38;21.50;92.90
22321;DHT22;11328;53.928;18.522;2022-07-06T13:55:06;21.20;93.40
22321;DHT22;11328;53.928;18.522;2022-07-06T13:57:34;21.10;93.80
22321;DHT22;11328;53.928;18.522;2022-07-06T14:00:02;21.00;94.40
22321;DHT22;11328;53.928;18.522;2022-07-06T14:02:30;20.90;94.50
22321;DHT22;11328;53.928;18.522;2022-07-06T14:05:00;21.00;94.80
22321;DHT22;11328;53.928;18.522;2022-07-06T14:07:28;20.90;94.80
22321;DHT22;11328;53.928;18.522;2022-07-06T14:09:56;20.70;95.00
22321;DHT22;11328;53.928;18.522;2022-07-06T14:12:23;20.70;95.10
22321;DHT22;11328;53.928;18.522;2022-07-06T14:14:51;20.70;95.50
22321;DHT22;11328;53.928;18.522;2022-07-06T14:17:19;20.70;94.80
22321;DHT22;11328;53.928;18.522;2022-07-06T14:19:46;20.70;94.90
22321;DHT22;11328;53.928;18.522;2022-07-06T14:22:15;20.70;94.60
22321;DHT22;11328;53.928;18.522;2022-07-06T14:24:42;20.70;94.10
22321;DHT22;11328;53.928;18.522;2022-07-06T14:27:10;20.80;94.80
22321;DHT22;11328;53.928;18.522;2022-07-06T14:29:37;21.10;95.10
22321;DHT22;11328;53.928;18.522;2022-07-06T14:32:04;21.00;94.90
22321;DHT22;11328;53.928;18.522;2022-07-06T14:34:32;20.90;95.50
22321;DHT22;11328;53.928;18.522;2022-07-06T14:36:59;21.00;95.80
22321;DHT22;11328;53.928;18.522;2022-07-06T14:39:26;20.80;95.80
22321;DHT22;11328;53.928;18.522;2022-07-06T14:41:53;20.90;96.30
22321;DHT22;11328;53.928;18.522;2022-07-06T14:44:20;20.80;95.90
22321;DHT22;11328;53.928;18.522;2022-07-06T14:46:48;20.80;96.60
22321;DHT22;11328;53.928;18.522;2022-07-06T14:49:15;20.90;96.50
22321;DHT22;11328;53.928;18.522;2022-07-06T14:51:48;20.90;96.30
22321;DHT22;11328;53.928;18.522;2022-07-06T14:54:16;21.00;97.60
22321;DHT22;11328;53.928;18.522;2022-07-06T14:56:43;21.30;97.70
22321;DHT22;11328;53.928;18.522;2022-07-06T14:59:13;21.20;97.00
22321;DHT22;11328;53.928;18.522;2022-07-06T15:01:51;21.00;97.60
22321;DHT22;11328;53.928;18.522;2022-07-06T15:04:20;20.90;98.00
22321;DHT22;11328;53.928;18.522;2022-07-06T15:06:50;20.90;97.90
22321;DHT22;11328;53.928;18.522;2022-07-06T15:09:20;20.70;98.10
22321;DHT22;11328;53.928;18.522;2022-07-06T15:11:48;20.90;98.50
22321;DHT22;11328;53.928;18.522;2022-07-06T15:14:15;20.60;97.50
22321;DHT22;11328;53.928;18.522;2022-07-06T15:16:44;20.50;96.60
22321;DHT22;11328;53.928;18.522;2022-07-06T15:19:11;20.20;97.00
22321;DHT22;11328;53.928;18.522;2022-07-06T15:21:39;20.10;97.60
22321;DHT22;11328;53.928;18.522;2022-07-06T15:24:07;20.00;97.20
22321;DHT22;11328;53.928;18.522;2022-07-06T15:26:34;19.90;97.30
22321;DHT22;11328;53.928;18.522;2022-07-06T15:29:01;19.90;97.90